KAWO/AWO METAR and TAF weather

Enter ICAO airport designator
Station Type Date Time Source
KAWO METAR 2020/06/02 18:56 UTC NOAA

KAWO 021856Z AUTO 23007KT 10SM BKN110 17/09 A3018 RMK AO2 SLP223 T01670094


Station Type Date Time Source
KAWO Decoded METAR 2020/06/02 18:56 UTC NOAA

Arlington Municipal, WA, United States (KAWO) 48-10N 122-10W
Jun 02, 2020 - 02:56 PM EDT / 2020.06.02 1856 UTC
Wind: from the SW (230 degrees) at 8 MPH (7 KT):0
Visibility: 10 mile(s):0
Sky conditions: mostly cloudy
Temperature: 62.1 F (16.7 C)
Dew Point: 48.9 F (9.4 C)
Relative Humidity: 62%
Pressure (altimeter): 30.18 in. Hg (1022 hPa)
ob: KAWO 021856Z AUTO 23007KT 10SM BKN110 17/09 A3018 RMK AO2 SLP223 T01670094
cycle: 19

Station Type Date Time Source
KAWO TAF UTC NOAA

Error!

Example: see airport list